createdAt,value
2022-10-10T03:59:00.673Z,1008.96
2022-10-10T04:00:00.152Z,1008.96
2022-10-10T04:00:59.100Z,1008.99
2022-10-10T04:01:59.006Z,1008.93
2022-10-10T04:03:00.003Z,1008.92
2022-10-10T04:04:00.140Z,1008.90
2022-10-10T04:05:00.139Z,1008.88
2022-10-10T04:05:59.010Z,1008.87
2022-10-10T04:06:58.980Z,1008.85
2022-10-10T04:08:00.625Z,1008.85
2022-10-10T04:09:00.667Z,1008.82
2022-10-10T04:09:59.963Z,1008.81
2022-10-10T04:11:00.656Z,1008.76
2022-10-10T04:11:58.955Z,1008.79
2022-10-10T04:13:00.680Z,1008.78
2022-10-10T04:13:59.939Z,1008.76
2022-10-10T04:15:00.676Z,1008.75
2022-10-10T04:16:00.651Z,1008.75
2022-10-10T04:17:03.175Z,1008.72
2022-10-10T04:18:00.645Z,1008.71
2022-10-10T04:19:00.637Z,1008.70
2022-10-10T04:20:00.638Z,1008.69
2022-10-10T04:21:00.649Z,1008.69
2022-10-10T04:22:00.640Z,1008.68
2022-10-10T04:23:00.727Z,1008.66
2022-10-10T04:23:58.919Z,1008.69
2022-10-10T04:25:00.660Z,1008.67
2022-10-10T04:26:00.671Z,1008.69
2022-10-10T04:26:58.897Z,1008.63
2022-10-10T04:28:01.414Z,1008.67
2022-10-10T04:29:00.641Z,1008.65
2022-10-10T04:29:58.884Z,1008.65
2022-10-10T04:31:00.205Z,1008.70
2022-10-10T04:31:58.899Z,1008.64
2022-10-10T04:33:00.647Z,1008.65
2022-10-10T04:34:00.643Z,1008.63
2022-10-10T04:35:00.687Z,1008.61
2022-10-10T04:36:00.670Z,1008.64
2022-10-10T04:37:00.650Z,1008.64
2022-10-10T04:38:00.664Z,1008.60
2022-10-10T04:39:00.666Z,1008.62
2022-10-10T04:40:00.658Z,1008.58
2022-10-10T04:41:00.664Z,1008.55
2022-10-10T04:42:00.657Z,1008.55
2022-10-10T04:43:00.658Z,1008.53
2022-10-10T04:44:00.672Z,1008.56
2022-10-10T04:45:00.665Z,1008.56
2022-10-10T04:45:58.838Z,1008.54
2022-10-10T04:47:00.691Z,1008.55
2022-10-10T04:47:58.829Z,1008.52
2022-10-10T04:48:58.831Z,1008.52
2022-10-10T04:49:58.857Z,1008.50
2022-10-10T04:51:00.675Z,1008.50
2022-10-10T04:52:00.689Z,1008.44
2022-10-10T04:52:58.814Z,1008.46
2022-10-10T04:53:58.809Z,1008.44
2022-10-10T04:54:58.804Z,1008.46
2022-10-10T04:56:00.682Z,1008.45
2022-10-10T04:56:58.803Z,1008.48
2022-10-10T04:57:58.801Z,1008.47
2022-10-10T04:59:00.179Z,1008.51
2022-10-10T04:59:58.795Z,1008.46
2022-10-10T05:00:58.833Z,1008.48
2022-10-10T05:02:01.756Z,1008.49
2022-10-10T05:02:58.807Z,1008.46
2022-10-10T05:04:00.185Z,1008.46
2022-10-10T05:05:00.686Z,1008.45
2022-10-10T05:06:00.687Z,1008.45
2022-10-10T05:07:00.678Z,1008.45
2022-10-10T05:08:00.674Z,1008.43
2022-10-10T05:09:00.680Z,1008.45
2022-10-10T05:10:00.698Z,1008.45
2022-10-10T05:11:00.679Z,1008.46
2022-10-10T05:12:00.678Z,1008.43
2022-10-10T05:13:00.685Z,1008.38
2022-10-10T05:14:00.683Z,1008.43
2022-10-10T05:15:00.706Z,1008.43
2022-10-10T05:16:00.693Z,1008.41
2022-10-10T05:17:00.682Z,1008.44
2022-10-10T05:18:00.727Z,1008.41
2022-10-10T05:18:58.756Z,1008.37
2022-10-10T05:19:58.736Z,1008.38
2022-10-10T05:21:03.425Z,1008.38
2022-10-10T05:22:00.708Z,1008.39
2022-10-10T05:23:00.706Z,1008.39
2022-10-10T05:23:58.733Z,1008.36
2022-10-10T05:24:58.721Z,1008.34
2022-10-10T05:25:58.720Z,1008.33
2022-10-10T05:26:58.707Z,1008.37
2022-10-10T05:28:00.211Z,1008.38
2022-10-10T05:28:58.710Z,1008.35
2022-10-10T05:29:58.710Z,1008.35
2022-10-10T05:30:58.706Z,1008.36
2022-10-10T05:32:00.473Z,1008.34
2022-10-10T05:32:59.709Z,1008.34
2022-10-10T05:33:59.737Z,1008.34
2022-10-10T05:34:58.690Z,1008.31
2022-10-10T05:35:58.690Z,1008.32
2022-10-10T05:37:00.210Z,1008.31
2022-10-10T05:37:59.704Z,1008.31
2022-10-10T05:38:59.725Z,1008.32
2022-10-10T05:39:59.672Z,1008.33
2022-10-10T05:40:59.662Z,1008.32
2022-10-10T05:42:00.221Z,1008.32
2022-10-10T05:42:59.727Z,1008.31
2022-10-10T05:44:00.241Z,1008.30
2022-10-10T05:44:59.729Z,1008.26
2022-10-10T05:46:02.756Z,1008.27
2022-10-10T05:46:58.643Z,1008.29
2022-10-10T05:47:59.729Z,1008.26
2022-10-10T05:48:58.646Z,1008.28
2022-10-10T05:50:00.253Z,1008.28
2022-10-10T05:51:00.227Z,1008.25
2022-10-10T05:51:58.641Z,1008.24
2022-10-10T05:52:58.717Z,1008.28
2022-10-10T05:54:01.669Z,1008.27
2022-10-10T05:54:58.651Z,1008.26
2022-10-10T05:55:58.637Z,1008.30
2022-10-10T05:56:58.640Z,1008.28
2022-10-10T05:57:58.720Z,1008.25
2022-10-10T05:59:00.228Z,1008.25
2022-10-10T05:59:58.630Z,1008.26
2022-10-10T06:00:58.599Z,1008.23
2022-10-10T06:01:58.593Z,1008.23
2022-10-10T06:03:00.232Z,1008.25
2022-10-10T06:04:01.255Z,1008.23
2022-10-10T06:05:00.239Z,1008.23
2022-10-10T06:05:58.623Z,1008.22
2022-10-10T06:06:58.584Z,1008.25
2022-10-10T06:08:10.730Z,1008.25
2022-10-10T06:09:00.232Z,1008.26
2022-10-10T06:10:01.251Z,1008.26
2022-10-10T06:11:00.308Z,1008.24
2022-10-10T06:11:58.599Z,1008.26
2022-10-10T06:12:58.577Z,1008.27
2022-10-10T06:14:00.246Z,1008.25
2022-10-10T06:14:58.561Z,1008.27
2022-10-10T06:16:00.261Z,1008.24
2022-10-10T06:17:00.232Z,1008.23
2022-10-10T06:18:00.290Z,1008.21
2022-10-10T06:18:59.767Z,1008.23
2022-10-10T06:20:00.241Z,1008.21
2022-10-10T06:21:00.275Z,1008.23
2022-10-10T06:22:00.262Z,1008.23
2022-10-10T06:23:00.247Z,1008.25
2022-10-10T06:23:59.754Z,1008.21
2022-10-10T06:24:58.531Z,1008.26
2022-10-10T06:25:58.559Z,1008.26
2022-10-10T06:26:59.781Z,1008.27
2022-10-10T06:27:58.558Z,1008.26
2022-10-10T06:28:58.526Z,1008.26
2022-10-10T06:29:58.519Z,1008.28
2022-10-10T06:31:00.281Z,1008.28
2022-10-10T06:31:58.516Z,1008.32
2022-10-10T06:32:58.859Z,1008.28
2022-10-10T06:33:58.515Z,1008.32
2022-10-10T06:34:58.521Z,1008.29
2022-10-10T06:36:00.288Z,1008.27
2022-10-10T06:36:58.503Z,1008.22
2022-10-10T06:37:59.799Z,1008.27
2022-10-10T06:38:59.511Z,1008.24
2022-10-10T06:39:59.492Z,1008.22
2022-10-10T06:41:06.269Z,1008.24
2022-10-10T06:42:00.247Z,1008.25
2022-10-10T06:43:00.312Z,1008.23
2022-10-10T06:43:58.494Z,1008.26
2022-10-10T06:45:00.261Z,1008.29
2022-10-10T06:46:00.458Z,1008.36
2022-10-10T06:47:00.304Z,1008.38
2022-10-10T06:48:00.281Z,1008.38
2022-10-10T06:49:00.288Z,1008.40
2022-10-10T06:50:00.306Z,1008.38
2022-10-10T06:51:00.275Z,1008.40
2022-10-10T06:52:00.304Z,1008.38
2022-10-10T06:53:00.325Z,1008.41
2022-10-10T06:54:00.290Z,1008.35
2022-10-10T06:54:59.448Z,1008.35
2022-10-10T06:55:59.809Z,1008.34
2022-10-10T06:57:00.289Z,1008.33
2022-10-10T06:57:58.443Z,1008.35
2022-10-10T06:58:59.385Z,1008.32
2022-10-10T06:59:58.452Z,1008.33
2022-10-10T07:01:59.785Z,1008.33
2022-10-10T07:02:59.782Z,1008.33
2022-10-10T07:03:58.435Z,1008.35
2022-10-10T07:04:58.430Z,1008.34
2022-10-10T07:05:58.461Z,1008.37
2022-10-10T07:06:59.791Z,1008.34
2022-10-10T07:07:58.427Z,1008.40
2022-10-10T07:08:58.410Z,1008.35
2022-10-10T07:09:59.426Z,1008.36
2022-10-10T07:10:59.407Z,1008.35
2022-10-10T07:11:59.812Z,1008.37
2022-10-10T07:12:59.428Z,1008.34
2022-10-10T07:13:59.438Z,1008.36
2022-10-10T07:14:59.408Z,1008.38
2022-10-10T07:16:00.315Z,1008.35
2022-10-10T07:16:59.797Z,1008.34
2022-10-10T07:18:00.333Z,1008.34
2022-10-10T07:18:59.398Z,1008.36
2022-10-10T07:20:00.291Z,1008.35
2022-10-10T07:21:00.360Z,1008.35
2022-10-10T07:22:00.333Z,1008.32
2022-10-10T07:23:00.287Z,1008.31
2022-10-10T07:23:59.384Z,1008.36
2022-10-10T07:25:00.378Z,1008.32
2022-10-10T07:25:58.485Z,1008.30
2022-10-10T07:27:05.023Z,1008.32
2022-10-10T07:28:01.321Z,1008.30
2022-10-10T07:28:59.567Z,1008.27
2022-10-10T07:30:02.281Z,1008.33
2022-10-10T07:31:05.959Z,1008.31
2022-10-10T07:32:05.302Z,1008.34
2022-10-10T07:33:01.029Z,1008.35
2022-10-10T07:33:59.097Z,1008.32
2022-10-10T07:35:01.306Z,1008.32
2022-10-10T07:36:03.433Z,1008.30
2022-10-10T07:37:35.365Z,1008.33
2022-10-10T07:38:19.378Z,1008.29
2022-10-10T07:39:15.022Z,1008.31
2022-10-10T07:40:05.911Z,1008.27
2022-10-10T07:40:58.369Z,1008.27
2022-10-10T07:41:58.843Z,1008.28
2022-10-10T07:42:58.363Z,1008.20
2022-10-10T07:44:10.878Z,1008.21
2022-10-10T07:44:58.867Z,1008.20
2022-10-10T07:45:58.388Z,1008.20
2022-10-10T07:46:58.622Z,1008.22
2022-10-10T07:47:58.335Z,1008.22
2022-10-10T07:49:00.731Z,1008.26
2022-10-10T07:49:58.407Z,1008.25
2022-10-10T07:50:58.503Z,1008.25
2022-10-10T07:52:01.214Z,1008.26
2022-10-10T07:52:58.331Z,1008.26
2022-10-10T07:54:00.566Z,1008.28
2022-10-10T07:54:58.738Z,1008.24
2022-10-10T07:55:58.320Z,1008.31
2022-10-10T07:57:09.554Z,1008.28
2022-10-10T07:58:00.056Z,1008.30
2022-10-10T07:58:58.345Z,1008.31
2022-10-10T07:59:58.319Z,1008.30
2022-10-10T08:00:58.526Z,1008.28
2022-10-10T08:01:58.463Z,1008.30
2022-10-10T08:02:59.930Z,1008.31
2022-10-10T08:03:58.313Z,1008.22
2022-10-10T08:04:59.401Z,1008.23
2022-10-10T08:05:58.309Z,1008.22
2022-10-10T08:06:58.339Z,1008.25
2022-10-10T08:07:58.356Z,1008.23
2022-10-10T08:08:58.325Z,1008.22
2022-10-10T08:09:59.363Z,1008.23
2022-10-10T08:10:58.304Z,1008.20
2022-10-10T08:11:58.312Z,1008.22
2022-10-10T08:12:59.904Z,1008.25
2022-10-10T08:13:59.863Z,1008.22
2022-10-10T08:14:59.894Z,1008.21
2022-10-10T08:15:59.839Z,1008.24
2022-10-10T08:16:59.836Z,1008.23
2022-10-10T08:17:59.879Z,1008.27
2022-10-10T08:18:59.919Z,1008.30
2022-10-10T08:19:59.844Z,1008.24
2022-10-10T08:20:59.861Z,1008.25
2022-10-10T08:21:59.852Z,1008.27
2022-10-10T08:22:59.866Z,1008.30
2022-10-10T08:23:59.887Z,1008.34
2022-10-10T08:24:59.854Z,1008.32
2022-10-10T08:25:59.883Z,1008.29
2022-10-10T08:26:59.875Z,1008.30
2022-10-10T08:28:00.897Z,1008.28
2022-10-10T08:28:59.900Z,1008.30
2022-10-10T08:29:59.852Z,1008.32
2022-10-10T08:31:00.111Z,1008.25
2022-10-10T08:31:58.275Z,1008.28
2022-10-10T08:32:58.316Z,1008.24
2022-10-10T08:33:59.373Z,1008.29
2022-10-10T08:34:58.310Z,1008.29
2022-10-10T08:35:59.367Z,1008.23
2022-10-10T08:36:58.274Z,1008.26
2022-10-10T08:37:59.869Z,1008.24
2022-10-10T08:38:59.372Z,1008.15
2022-10-10T08:39:58.317Z,1008.18
2022-10-10T08:40:58.319Z,1008.19
2022-10-10T08:42:00.377Z,1008.21
2022-10-10T08:42:58.535Z,1008.18
2022-10-10T08:44:01.930Z,1008.22
2022-10-10T08:44:59.264Z,1008.22
2022-10-10T08:45:59.301Z,1008.20
2022-10-10T08:46:59.878Z,1008.26
2022-10-10T08:47:59.373Z,1008.25
2022-10-10T08:48:59.876Z,1008.25
2022-10-10T08:49:59.266Z,1008.20
2022-10-10T08:50:59.870Z,1008.17
2022-10-10T08:51:59.902Z,1008.23
2022-10-10T08:52:59.385Z,1008.17
2022-10-10T08:53:59.878Z,1008.20
2022-10-10T08:54:59.872Z,1008.17
2022-10-10T08:55:59.877Z,1008.21
2022-10-10T08:56:59.879Z,1008.19
2022-10-10T08:57:59.922Z,1008.17
2022-10-10T08:58:59.880Z,1008.14
2022-10-10T08:59:59.951Z,1008.13
2022-10-10T09:00:59.928Z,1008.17
2022-10-10T09:02:17.768Z,1008.09
2022-10-10T09:03:00.345Z,1008.12
2022-10-10T09:03:59.951Z,1008.11
2022-10-10T09:04:59.265Z,1008.15
2022-10-10T09:05:59.260Z,1008.11
2022-10-10T09:06:58.249Z,1008.13
2022-10-10T09:07:58.294Z,1008.12
2022-10-10T09:08:59.905Z,1008.09
2022-10-10T09:09:58.245Z,1008.09
2022-10-10T09:10:58.791Z,1008.07
2022-10-10T09:11:58.343Z,1008.04
2022-10-10T09:12:59.914Z,1008.07
2022-10-10T09:15:02.094Z,1008.08
2022-10-10T09:15:59.919Z,1008.11
2022-10-10T09:16:59.904Z,1008.12
2022-10-10T09:17:59.895Z,1008.17
2022-10-10T09:18:59.911Z,1008.16
2022-10-10T09:19:59.898Z,1008.15
2022-10-10T09:21:00.172Z,1008.11
2022-10-10T09:21:59.247Z,1008.11
2022-10-10T09:22:59.941Z,1008.16
2022-10-10T09:23:59.920Z,1008.13
2022-10-10T09:25:00.657Z,1008.15
2022-10-10T09:26:01.159Z,1008.19
2022-10-10T09:26:59.930Z,1008.15
2022-10-10T09:28:11.268Z,1008.15
2022-10-10T09:28:58.395Z,1008.16
2022-10-10T09:30:05.373Z,1008.17
2022-10-10T09:30:59.715Z,1008.16
2022-10-10T09:31:58.685Z,1008.14
2022-10-10T09:33:00.313Z,1008.14
2022-10-10T09:33:59.406Z,1008.09
2022-10-10T09:34:58.254Z,1008.10
2022-10-10T09:35:58.257Z,1008.11
2022-10-10T09:36:59.332Z,1008.10
2022-10-10T09:38:00.545Z,1008.10
2022-10-10T09:38:58.236Z,1008.07
2022-10-10T09:40:00.949Z,1008.13
2022-10-10T09:41:01.102Z,1008.13
2022-10-10T09:41:58.230Z,1008.12
2022-10-10T09:42:58.244Z,1008.11
2022-10-10T09:43:58.360Z,1008.15
2022-10-10T09:44:58.265Z,1008.16
2022-10-10T09:46:00.501Z,1008.15
2022-10-10T09:46:59.332Z,1008.13
2022-10-10T09:48:01.385Z,1008.16
2022-10-10T09:49:14.220Z,1008.14
2022-10-10T09:51:00.346Z,1008.17
2022-10-10T09:51:58.553Z,1008.13
2022-10-10T09:52:59.979Z,1008.12
2022-10-10T09:53:59.962Z,1008.16
2022-10-10T09:54:59.931Z,1008.08
2022-10-10T09:55:59.977Z,1008.16
2022-10-10T09:57:05.451Z,1008.14
2022-10-10T09:57:58.232Z,1008.12
2022-10-10T09:58:58.249Z,1008.13
2022-10-10T10:00:02.252Z,1008.15
2022-10-10T10:01:00.357Z,1008.20
2022-10-10T10:01:58.276Z,1008.20
2022-10-10T10:13:07.991Z,1008.22
2022-10-10T10:14:05.894Z,1008.28
2022-10-10T10:15:05.856Z,1008.26
2022-10-10T10:16:05.848Z,1008.25
2022-10-10T10:17:06.959Z,1008.27
2022-10-10T10:18:05.845Z,1008.27
2022-10-10T10:19:05.845Z,1008.31
2022-10-10T10:20:10.656Z,1008.32
2022-10-10T10:21:05.841Z,1008.30
2022-10-10T10:22:07.460Z,1008.26
2022-10-10T10:23:05.861Z,1008.30
2022-10-10T10:24:05.895Z,1008.30
2022-10-10T10:25:05.858Z,1008.29
2022-10-10T10:26:06.965Z,1008.31
2022-10-10T10:27:05.854Z,1008.32
2022-10-10T10:28:07.505Z,1008.32
2022-10-10T10:29:06.874Z,1008.33
2022-10-10T10:30:06.872Z,1008.36
2022-10-10T10:31:07.642Z,1008.36
2022-10-10T10:32:07.470Z,1008.38
2022-10-10T10:33:05.978Z,1008.41
2022-10-10T10:34:08.483Z,1008.39
2022-10-10T10:35:07.008Z,1008.33
2022-10-10T10:36:12.583Z,1008.35
2022-10-10T10:37:10.415Z,1008.35
2022-10-10T10:38:07.526Z,1008.35
2022-10-10T10:39:07.489Z,1008.39
2022-10-10T10:40:07.498Z,1008.33
2022-10-10T10:41:07.487Z,1008.36
2022-10-10T10:42:07.471Z,1008.35
2022-10-10T10:43:07.477Z,1008.33
2022-10-10T10:44:07.490Z,1008.32
2022-10-10T10:45:07.516Z,1008.32
2022-10-10T10:46:05.867Z,1008.34
2022-10-10T10:47:05.951Z,1008.33
2022-10-10T10:48:05.887Z,1008.33
2022-10-10T10:49:07.491Z,1008.30
2022-10-10T10:50:05.890Z,1008.25
2022-10-10T10:51:05.895Z,1008.26
2022-10-10T10:52:07.048Z,1008.27
2022-10-10T10:53:05.898Z,1008.29
2022-10-10T10:54:06.883Z,1008.29
2022-10-10T10:55:05.982Z,1008.29
2022-10-10T10:56:07.499Z,1008.29
2022-10-10T10:57:06.594Z,1008.30
2022-10-10T10:58:37.628Z,1008.27
2022-10-10T11:00:20.606Z,1008.25
2022-10-10T11:01:38.420Z,1008.25
2022-10-10T11:02:06.370Z,1008.25
2022-10-10T11:03:21.143Z,1008.28
2022-10-10T11:05:19.173Z,1008.27
2022-10-10T11:05:20.079Z,1008.27
2022-10-10T11:06:07.760Z,1008.31
2022-10-10T11:07:18.574Z,1008.31
2022-10-10T11:08:07.493Z,1008.31
2022-10-10T11:09:05.936Z,1008.31
2022-10-10T11:10:07.500Z,1008.31
2022-10-10T11:11:07.525Z,1008.29
2022-10-10T11:12:05.933Z,1008.27
2022-10-10T11:13:07.538Z,1008.32
2022-10-10T11:14:07.036Z,1008.27
2022-10-10T11:15:07.064Z,1008.32
2022-10-10T11:16:20.335Z,1008.27
2022-10-10T11:17:06.027Z,1008.28
2022-10-10T11:18:05.996Z,1008.33
2022-10-10T11:19:05.997Z,1008.29
2022-10-10T11:20:05.997Z,1008.28
2022-10-10T11:21:05.957Z,1008.26
2022-10-10T11:22:07.539Z,1008.22
2022-10-10T11:23:08.963Z,1008.24
2022-10-10T11:24:06.094Z,1008.27
2022-10-10T11:25:13.527Z,1008.21
2022-10-10T11:26:06.931Z,1008.26
2022-10-10T11:27:05.986Z,1008.24
2022-10-10T11:28:06.032Z,1008.27
2022-10-10T11:29:06.073Z,1008.23
2022-10-10T11:30:05.980Z,1008.29
2022-10-10T11:31:06.003Z,1008.26
2022-10-10T11:32:07.607Z,1008.24
2022-10-10T11:33:07.532Z,1008.25
2022-10-10T11:34:07.529Z,1008.23
2022-10-10T11:35:07.553Z,1008.25
2022-10-10T11:36:07.570Z,1008.21
2022-10-10T11:37:07.533Z,1008.22
2022-10-10T11:38:08.547Z,1008.22
2022-10-10T11:39:12.762Z,1008.17
2022-10-10T11:40:07.551Z,1008.22
2022-10-10T11:41:07.565Z,1008.17
2022-10-10T11:42:07.534Z,1008.16
2022-10-10T11:43:07.535Z,1008.14
2022-10-10T11:44:07.535Z,1008.15
2022-10-10T11:45:07.100Z,1008.11
2022-10-10T11:46:06.264Z,1008.08
2022-10-10T11:47:07.545Z,1008.12
2022-10-10T11:48:07.551Z,1008.14
2022-10-10T11:49:07.567Z,1008.12
2022-10-10T11:50:08.600Z,1008.10
2022-10-10T11:51:09.944Z,1008.18
2022-10-10T11:52:31.923Z,1008.13
2022-10-10T11:53:08.048Z,1008.21
2022-10-10T11:54:08.081Z,1008.20
2022-10-10T11:55:08.090Z,1008.17
2022-10-10T11:56:08.065Z,1008.15
2022-10-10T11:57:09.552Z,1008.17
2022-10-10T11:58:06.087Z,1008.16
2022-10-10T11:59:06.089Z,1008.19
2022-10-10T12:00:08.104Z,1008.13
2022-10-10T12:01:06.101Z,1008.16
2022-10-10T12:02:08.077Z,1008.13
2022-10-10T12:03:08.085Z,1008.14
2022-10-10T12:04:06.114Z,1008.09
2022-10-10T12:05:08.088Z,1008.13
2022-10-10T12:06:08.070Z,1008.18
2022-10-10T12:07:08.080Z,1008.18
2022-10-10T12:08:08.065Z,1008.17
2022-10-10T12:09:06.128Z,1008.14
2022-10-10T12:10:08.064Z,1008.11
2022-10-10T12:11:06.126Z,1008.14
2022-10-10T12:12:08.085Z,1008.15
2022-10-10T12:13:08.071Z,1008.13
2022-10-10T12:14:08.073Z,1008.13
2022-10-10T12:15:06.145Z,1008.14
2022-10-10T12:16:08.151Z,1008.14
2022-10-10T12:17:08.099Z,1008.18
2022-10-10T12:18:08.102Z,1008.18
2022-10-10T12:19:06.162Z,1008.21
2022-10-10T12:20:06.194Z,1008.21
2022-10-10T12:21:06.174Z,1008.21
2022-10-10T12:22:06.166Z,1008.22
2022-10-10T12:23:08.098Z,1008.22
2022-10-10T12:24:08.107Z,1008.24
2022-10-10T12:25:08.092Z,1008.26
2022-10-10T12:26:06.185Z,1008.20
2022-10-10T12:27:06.209Z,1008.19
2022-10-10T12:28:06.284Z,1008.17
2022-10-10T12:29:06.200Z,1008.20
2022-10-10T12:30:08.124Z,1008.20
2022-10-10T12:31:06.513Z,1008.21
2022-10-10T12:32:06.198Z,1008.21
2022-10-10T12:33:06.218Z,1008.19
2022-10-10T12:34:06.209Z,1008.20
2022-10-10T12:35:07.603Z,1008.24
2022-10-10T12:36:06.220Z,1008.23
2022-10-10T12:37:07.614Z,1008.24
2022-10-10T12:38:06.227Z,1008.30
2022-10-10T12:39:08.118Z,1008.28
2022-10-10T12:40:06.222Z,1008.26
2022-10-10T12:41:06.225Z,1008.28
2022-10-10T12:42:06.228Z,1008.20
2022-10-10T12:43:08.119Z,1008.24
2022-10-10T12:44:06.235Z,1008.24
2022-10-10T12:45:06.237Z,1008.23
2022-10-10T12:46:08.187Z,1008.23
2022-10-10T12:47:08.130Z,1008.19
2022-10-10T12:48:07.209Z,1008.23
2022-10-10T12:49:08.108Z,1008.25
2022-10-10T12:50:06.251Z,1008.23
2022-10-10T12:51:08.161Z,1008.20
2022-10-10T12:52:06.255Z,1008.22
2022-10-10T12:53:08.130Z,1008.28
2022-10-10T12:54:06.271Z,1008.19
2022-10-10T12:55:08.127Z,1008.26
2022-10-10T12:56:06.348Z,1008.25
2022-10-10T12:57:08.115Z,1008.26
2022-10-10T12:58:06.276Z,1008.26
2022-10-10T12:59:08.115Z,1008.29
2022-10-10T13:00:08.150Z,1008.24
2022-10-10T13:01:06.861Z,1008.23
2022-10-10T13:02:06.296Z,1008.24
2022-10-10T13:03:08.136Z,1008.28
2022-10-10T13:04:06.297Z,1008.24
2022-10-10T13:05:06.285Z,1008.26
2022-10-10T13:06:08.139Z,1008.20
2022-10-10T13:07:08.126Z,1008.19
2022-10-10T13:08:08.130Z,1008.23
2022-10-10T13:09:08.159Z,1008.20
2022-10-10T13:10:08.143Z,1008.26
2022-10-10T13:11:08.146Z,1008.25
2022-10-10T13:12:08.130Z,1008.24
2022-10-10T13:13:08.134Z,1008.23
2022-10-10T13:14:09.161Z,1008.30
2022-10-10T13:15:08.148Z,1008.31
2022-10-10T13:16:08.134Z,1008.31
2022-10-10T13:17:08.175Z,1008.30
2022-10-10T13:18:08.143Z,1008.27
2022-10-10T13:19:06.309Z,1008.30
2022-10-10T13:20:06.441Z,1008.32
2022-10-10T13:21:08.155Z,1008.32
2022-10-10T13:22:06.323Z,1008.36
2022-10-10T13:23:06.317Z,1008.33
2022-10-10T13:24:06.320Z,1008.38
2022-10-10T13:25:06.343Z,1008.36
2022-10-10T13:26:08.665Z,1008.34
2022-10-10T13:27:06.321Z,1008.36
2022-10-10T13:28:06.379Z,1008.39
2022-10-10T13:29:06.328Z,1008.36
2022-10-10T13:30:08.666Z,1008.40
2022-10-10T13:31:06.383Z,1008.34
2022-10-10T13:32:06.336Z,1008.37
2022-10-10T13:33:06.358Z,1008.34
2022-10-10T13:34:08.182Z,1008.40
2022-10-10T13:35:06.404Z,1008.37
2022-10-10T13:36:08.199Z,1008.45
2022-10-10T13:37:08.166Z,1008.48
2022-10-10T13:38:08.159Z,1008.43
2022-10-10T13:39:08.160Z,1008.44
2022-10-10T13:40:07.686Z,1008.47
2022-10-10T13:41:08.182Z,1008.45
2022-10-10T13:42:08.163Z,1008.41
2022-10-10T13:43:08.194Z,1008.49
2022-10-10T13:44:08.167Z,1008.47
2022-10-10T13:45:08.185Z,1008.49
2022-10-10T13:46:08.166Z,1008.48
2022-10-10T13:47:08.196Z,1008.49
2022-10-10T13:48:08.182Z,1008.46
2022-10-10T13:49:08.170Z,1008.45
2022-10-10T13:50:08.168Z,1008.50
2022-10-10T13:51:06.631Z,1008.52
2022-10-10T13:52:08.200Z,1008.57
2022-10-10T13:53:06.358Z,1008.60
2022-10-10T13:54:06.347Z,1008.53
2022-10-10T13:55:06.348Z,1008.54
2022-10-10T13:56:06.342Z,1008.53
2022-10-10T13:57:08.200Z,1008.55
2022-10-10T13:58:06.347Z,1008.55
2022-10-10T13:59:06.367Z,1008.59
2022-10-10T14:00:06.351Z,1008.60
2022-10-10T14:01:08.195Z,1008.62
2022-10-10T14:02:06.444Z,1008.66
2022-10-10T14:03:08.194Z,1008.65
2022-10-10T14:04:06.349Z,1008.66
2022-10-10T14:05:06.351Z,1008.64
2022-10-10T14:06:06.358Z,1008.63
2022-10-10T14:07:08.217Z,1008.67
2022-10-10T14:08:08.208Z,1008.65
2022-10-10T14:09:06.346Z,1008.68
2022-10-10T14:10:06.357Z,1008.66
2022-10-10T14:11:06.903Z,1008.63
2022-10-10T14:12:08.208Z,1008.66
2022-10-10T14:13:06.371Z,1008.70
2022-10-10T14:14:08.195Z,1008.69
2022-10-10T14:15:06.345Z,1008.73
2022-10-10T14:16:08.212Z,1008.70
2022-10-10T14:17:06.370Z,1008.70
2022-10-10T14:18:08.198Z,1008.78
2022-10-10T14:19:08.215Z,1008.75
2022-10-10T14:20:06.350Z,1008.73
2022-10-10T14:21:08.209Z,1008.71
2022-10-10T14:22:08.232Z,1008.75
2022-10-10T14:23:07.344Z,1008.73
2022-10-10T14:24:08.207Z,1008.78
2022-10-10T14:25:08.207Z,1008.73
2022-10-10T14:26:08.364Z,1008.75
2022-10-10T14:27:08.222Z,1008.75
2022-10-10T14:28:08.310Z,1008.74
2022-10-10T14:29:08.209Z,1008.80
2022-10-10T14:30:07.339Z,1008.77
2022-10-10T14:31:06.603Z,1008.72
2022-10-10T14:32:08.225Z,1008.75
2022-10-10T14:33:07.343Z,1008.84
2022-10-10T14:34:06.336Z,1008.87
2022-10-10T14:35:06.334Z,1008.86
2022-10-10T14:36:06.342Z,1008.94
2022-10-10T14:37:08.673Z,1008.96
2022-10-10T14:38:06.340Z,1008.95
2022-10-10T14:39:06.340Z,1008.94
2022-10-10T14:40:07.338Z,1008.97
2022-10-10T14:41:08.233Z,1008.97
2022-10-10T14:42:08.245Z,1008.93
2022-10-10T14:43:08.227Z,1008.99
2022-10-10T14:44:06.338Z,1008.93
2022-10-10T14:45:08.224Z,1008.93
2022-10-10T14:46:08.248Z,1008.96
2022-10-10T14:47:06.327Z,1008.98
2022-10-10T14:48:08.231Z,1008.97
2022-10-10T14:49:09.676Z,1008.98
2022-10-10T14:50:08.241Z,1008.98
2022-10-10T14:51:34.065Z,1008.98
2022-10-10T14:52:06.324Z,1008.94
2022-10-10T14:53:08.234Z,1008.92
2022-10-10T14:54:10.693Z,1008.93
2022-10-10T14:55:08.300Z,1008.93
2022-10-10T14:56:08.246Z,1008.94
2022-10-10T14:57:10.160Z,1009.05
2022-10-10T14:58:08.238Z,1009.04
2022-10-10T14:59:08.246Z,1009.08
2022-10-10T15:00:08.252Z,1009.09
2022-10-10T15:01:08.243Z,1009.09
2022-10-10T15:02:08.245Z,1009.11
2022-10-10T15:03:08.315Z,1009.12
2022-10-10T15:04:08.256Z,1009.12
2022-10-10T15:05:08.282Z,1009.12
2022-10-10T15:06:08.246Z,1009.13
2022-10-10T15:07:13.499Z,1009.11
2022-10-10T15:08:08.259Z,1009.12
2022-10-10T15:09:16.937Z,1009.11
2022-10-10T15:11:07.337Z,1009.14
2022-10-10T15:12:08.249Z,1009.15
2022-10-10T15:13:08.294Z,1009.18
2022-10-10T15:14:08.257Z,1009.15
2022-10-10T15:15:08.273Z,1009.16
2022-10-10T15:16:08.253Z,1009.20
2022-10-10T15:17:07.285Z,1009.25
2022-10-10T15:18:26.762Z,1009.27
2022-10-10T15:19:08.268Z,1009.32
2022-10-10T15:20:08.270Z,1009.34
2022-10-10T15:21:08.266Z,1009.38
2022-10-10T15:22:08.259Z,1009.41
2022-10-10T15:23:08.263Z,1009.46
2022-10-10T15:24:07.772Z,1009.48
2022-10-10T15:25:07.277Z,1009.49
2022-10-10T15:26:07.761Z,1009.50
2022-10-10T15:27:07.843Z,1009.52
2022-10-10T15:28:07.850Z,1009.54
2022-10-10T15:29:07.766Z,1009.54
2022-10-10T15:30:07.766Z,1009.62
2022-10-10T15:31:07.890Z,1009.59
2022-10-10T15:32:07.782Z,1009.64
2022-10-10T15:33:07.773Z,1009.62
2022-10-10T15:34:07.767Z,1009.67
2022-10-10T15:35:07.781Z,1009.66
2022-10-10T15:36:10.430Z,1009.66
2022-10-10T15:37:07.775Z,1009.66
2022-10-10T15:38:07.773Z,1009.71
2022-10-10T15:39:07.812Z,1009.70
2022-10-10T15:40:07.776Z,1009.75
2022-10-10T15:41:06.539Z,1009.72
2022-10-10T15:42:13.322Z,1009.75
2022-10-10T15:43:07.309Z,1009.77
2022-10-10T15:44:06.226Z,1009.77
2022-10-10T15:45:06.227Z,1009.76
2022-10-10T15:46:06.244Z,1009.80
2022-10-10T15:47:07.793Z,1009.82
2022-10-10T15:48:07.294Z,1009.80
2022-10-10T15:49:07.796Z,1009.81
2022-10-10T15:50:07.228Z,1009.85
2022-10-10T15:51:07.211Z,1009.95
2022-10-10T15:52:06.214Z,1009.92
2022-10-10T15:53:07.803Z,1009.98
2022-10-10T15:54:06.211Z,1010.01
2022-10-10T15:55:07.792Z,1010.00
2022-10-10T15:56:09.987Z,1010.01
2022-10-10T15:57:07.784Z,1010.04
2022-10-10T15:58:07.794Z,1010.04
2022-10-10T15:59:07.789Z,1010.04
2022-10-10T16:00:07.834Z,1010.02
2022-10-10T16:01:06.780Z,1010.05
2022-10-10T16:12:20.948Z,1010.16
2022-10-10T16:13:20.898Z,1010.19
2022-10-10T16:14:20.344Z,1010.19
2022-10-10T16:15:20.916Z,1010.20
2022-10-10T16:16:20.917Z,1010.21
2022-10-10T16:17:23.285Z,1010.24
2022-10-10T16:18:20.926Z,1010.28
2022-10-10T16:19:19.312Z,1010.27
2022-10-10T16:20:19.313Z,1010.31
2022-10-10T16:21:20.418Z,1010.34
2022-10-10T16:22:19.298Z,1010.37
2022-10-10T16:23:19.307Z,1010.38
2022-10-10T16:24:20.919Z,1010.39
2022-10-10T16:25:23.261Z,1010.39
2022-10-10T16:26:19.298Z,1010.44
2022-10-10T16:27:19.283Z,1010.43
2022-10-10T16:28:19.366Z,1010.45
2022-10-10T16:29:20.954Z,1010.47